Time;durP1;ratioP1;P1;durP2;ratioP2;P2;SDS_P1;SDS_P2;PMS_P1;PMS_P2;Temp;Humidity;BMP_temperature;BMP_pressure;BME280_temperature;BME280_humidity;BME280_pressure;Samples;Min_cycle;Max_cycle;Signal;HPM_P1;HPM_P2
2021/07/18 00:00:24;;;;;;;;;;;18.40;99.90;;;;;;4918163;29;19927;-73
2021/07/18 00:02:56;;;;;;;;;;;18.40;99.90;;;;;;4916701;29;19935;-73
2021/07/18 00:05:22;;;;;;;;;;;18.40;99.90;;;;;;4916658;29;20026;-73
2021/07/18 00:07:49;;;;;;;;;;;18.40;99.90;;;;;;4934509;29;19966;-74
2021/07/18 00:10:16;;;;;;;;;;;18.30;99.90;;;;;;4916918;29;20010;-73
2021/07/18 00:12:47;;;;;;;;;;;18.30;99.90;;;;;;4931685;29;20029;-73
2021/07/18 00:15:14;;;;;;;;;;;18.30;99.90;;;;;;4917594;29;20025;-74
2021/07/18 00:17:46;;;;;;;;;;;18.20;99.90;;;;;;4903289;29;20030;-74
2021/07/18 00:20:13;;;;;;;;;;;18.20;99.90;;;;;;4935401;29;19958;-74
2021/07/18 00:22:40;;;;;;;;;;;18.20;99.90;;;;;;4917701;29;20026;-74
2021/07/18 00:25:13;;;;;;;;;;;18.20;99.90;;;;;;4919224;29;19973;-74
2021/07/18 00:27:40;;;;;;;;;;;18.10;99.90;;;;;;4918113;29;19997;-74
2021/07/18 00:30:08;;;;;;;;;;;18.10;99.90;;;;;;4918149;29;20029;-74
2021/07/18 00:32:41;;;;;;;;;;;18.10;99.90;;;;;;4918630;29;19934;-74
2021/07/18 00:35:08;;;;;;;;;;;18.10;99.90;;;;;;4918292;29;20400;-74
2021/07/18 00:37:36;;;;;;;;;;;18.10;99.90;;;;;;4935269;29;19926;-74
2021/07/18 00:40:06;;;;;;;;;;;18.00;99.90;;;;;;4902191;29;19927;-74
2021/07/18 00:42:33;;;;;;;;;;;18.00;99.90;;;;;;4917875;29;19926;-74
2021/07/18 00:45:00;;;;;;;;;;;18.00;99.90;;;;;;4902054;29;20030;-74
2021/07/18 00:47:33;;;;;;;;;;;18.00;99.90;;;;;;4902941;29;20026;-74
2021/07/18 00:50:07;;;;;;;;;;;18.00;99.90;;;;;;4903093;29;20398;-74
2021/07/18 00:52:39;;;;;;;;;;;18.00;99.90;;;;;;4917540;29;19927;-74
2021/07/18 00:55:12;;;;;;;;;;;18.00;99.90;;;;;;4918558;29;19978;-74
2021/07/18 00:57:45;;;;;;;;;;;18.00;99.90;;;;;;4918928;29;20018;-74
2021/07/18 01:00:12;;;;;;;;;;;18.00;99.90;;;;;;4917489;29;20398;-74
2021/07/18 01:02:39;;;;;;;;;;;18.00;99.90;;;;;;4916916;29;19966;-74
2021/07/18 01:05:07;;;;;;;;;;;18.00;99.90;;;;;;4901741;29;19933;-74
2021/07/18 01:07:39;;;;;;;;;;;17.90;99.90;;;;;;4921280;29;19931;-74
2021/07/18 01:10:11;;;;;;;;;;;17.90;99.90;;;;;;4921198;29;19930;-74
2021/07/18 01:12:38;;;;;;;;;;;17.90;99.90;;;;;;4920911;29;19939;-74
2021/07/18 01:15:10;;;;;;;;;;;17.80;99.90;;;;;;4906207;29;20477;-74
2021/07/18 01:17:37;;;;;;;;;;;17.90;99.90;;;;;;4905664;29;19998;-74
2021/07/18 01:20:05;;;;;;;;;;;17.80;99.90;;;;;;4921519;29;19959;-74
2021/07/18 01:22:37;;;;;;;;;;;17.80;99.90;;;;;;4922055;29;20017;-74
2021/07/18 01:25:10;;;;;;;;;;;17.80;99.90;;;;;;4938184;29;19931;-74
2021/07/18 01:27:39;;;;;;;;;;;17.80;99.90;;;;;;4920875;29;20409;-74
2021/07/18 01:30:10;;;;;;;;;;;17.80;99.90;;;;;;4937660;29;19927;-74
2021/07/18 01:32:42;;;;;;;;;;;17.80;99.90;;;;;;4920013;29;20473;-74
2021/07/18 01:35:10;;;;;;;;;;;17.70;99.90;;;;;;4920421;29;20301;-74
2021/07/18 01:37:41;;;;;;;;;;;17.70;99.90;;;;;;4920536;29;19930;-74
2021/07/18 01:40:08;;;;;;;;;;;17.70;99.90;;;;;;4938085;29;19989;-74
2021/07/18 01:42:40;;;;;;;;;;;17.70;99.90;;;;;;4905544;29;20398;-74
2021/07/18 01:45:07;;;;;;;;;;;17.70;99.90;;;;;;4921150;29;19966;-74
2021/07/18 01:47:41;;;;;;;;;;;17.60;99.90;;;;;;4920965;29;20352;-74
2021/07/18 01:50:08;;;;;;;;;;;17.60;99.90;;;;;;4904832;29;20029;-74
2021/07/18 01:52:34;;;;;;;;;;;17.60;99.90;;;;;;4920851;29;19981;-74
2021/07/18 01:55:01;;;;;;;;;;;17.60;99.90;;;;;;4905004;29;20029;-74
2021/07/18 01:57:33;;;;;;;;;;;17.60;99.90;;;;;;4937854;29;20034;-74
2021/07/18 02:00:00;;;;;;;;;;;17.60;99.90;;;;;;4938017;29;20021;-74
2021/07/18 02:02:26;;;;;;;;;;;17.60;99.90;;;;;;4920686;29;19978;-74
2021/07/18 02:04:53;;;;;;;;;;;17.60;99.90;;;;;;4904896;29;19981;-74
2021/07/18 02:07:20;;;;;;;;;;;17.60;99.90;;;;;;4921016;29;19973;-73
2021/07/18 02:09:46;;;;;;;;;;;17.60;99.90;;;;;;4920992;29;20021;-73
2021/07/18 02:12:13;;;;;;;;;;;17.60;99.90;;;;;;4904804;29;19927;-73
2021/07/18 02:14:40;;;;;;;;;;;17.60;99.90;;;;;;4920395;29;20017;-73
2021/07/18 02:17:06;;;;;;;;;;;17.60;99.90;;;;;;4920437;29;19931;-73
2021/07/18 02:19:38;;;;;;;;;;;17.60;99.90;;;;;;4920619;29;20021;-73
2021/07/18 02:22:10;;;;;;;;;;;17.60;99.90;;;;;;4905178;29;19927;-73
2021/07/18 02:24:37;;;;;;;;;;;17.50;99.90;;;;;;4920424;29;20445;-73
2021/07/18 02:27:10;;;;;;;;;;;17.60;99.90;;;;;;4920257;29;20425;-73
2021/07/18 02:29:41;;;;;;;;;;;17.60;99.90;;;;;;4905180;29;19927;-74
2021/07/18 02:32:08;;;;;;;;;;;17.50;99.90;;;;;;4919842;29;19958;-73
2021/07/18 02:34:39;;;;;;;;;;;17.50;99.90;;;;;;4936974;29;20025;-74
2021/07/18 02:37:11;;;;;;;;;;;17.50;99.90;;;;;;4905274;29;19926;-73
2021/07/18 02:39:43;;;;;;;;;;;17.50;99.90;;;;;;4937246;29;20029;-73
2021/07/18 02:42:14;;;;;;;;;;;17.50;99.90;;;;;;4920658;29;20033;-73
2021/07/18 02:44:41;;;;;;;;;;;17.50;99.90;;;;;;4919906;29;20013;-73
2021/07/18 02:47:13;;;;;;;;;;;17.50;99.90;;;;;;4905051;29;20025;-73
2021/07/18 02:49:44;;;;;;;;;;;17.50;99.90;;;;;;4919924;29;19927;-74
2021/07/18 02:52:16;;;;;;;;;;;17.50;99.90;;;;;;4919641;29;19966;-73
2021/07/18 02:54:43;;;;;;;;;;;17.50;99.90;;;;;;4919708;29;19969;-73
2021/07/18 02:57:10;;;;;;;;;;;17.40;99.90;;;;;;4904139;29;19965;-74
2021/07/18 02:59:41;;;;;;;;;;;17.40;99.90;;;;;;4919614;29;19926;-74
2021/07/18 03:02:13;;;;;;;;;;;17.40;99.90;;;;;;4936389;29;20029;-74
2021/07/18 03:04:44;;;;;;;;;;;17.40;99.90;;;;;;4904382;29;20360;-74
2021/07/18 03:07:11;;;;;;;;;;;17.40;99.90;;;;;;4919792;29;19926;-73
2021/07/18 03:09:43;;;;;;;;;;;17.30;99.90;;;;;;4936519;29;19973;-73
2021/07/18 03:12:09;;;;;;;;;;;17.20;99.90;;;;;;4936085;29;19977;-73
2021/07/18 03:14:36;;;;;;;;;;;17.20;99.90;;;;;;4936167;29;19951;-74
2021/07/18 03:17:09;;;;;;;;;;;17.20;99.90;;;;;;4919403;29;19928;-73
2021/07/18 03:19:41;;;;;;;;;;;17.10;99.90;;;;;;4904407;29;19989;-73
2021/07/18 03:22:08;;;;;;;;;;;17.10;99.90;;;;;;4919081;29;19927;-73
2021/07/18 03:24:40;;;;;;;;;;;17.10;99.90;;;;;;4919119;29;20362;-73
2021/07/18 03:27:11;;;;;;;;;;;17.10;99.90;;;;;;4919165;29;20051;-73
2021/07/18 03:29:43;;;;;;;;;;;17.10;99.90;;;;;;4903571;29;20018;-73
2021/07/18 03:32:15;;;;;;;;;;;17.10;99.90;;;;;;4919756;29;19958;-73
2021/07/18 03:34:47;;;;;;;;;;;17.10;99.90;;;;;;4936160;29;20002;-73
2021/07/18 03:37:14;;;;;;;;;;;17.00;99.90;;;;;;4919152;29;19966;-74
2021/07/18 03:39:41;;;;;;;;;;;17.00;99.90;;;;;;4936018;29;19955;-74
2021/07/18 03:42:08;;;;;;;;;;;17.00;99.90;;;;;;4918818;29;19981;-74
2021/07/18 03:44:36;;;;;;;;;;;17.00;99.90;;;;;;4918753;29;20029;-74
2021/07/18 03:47:08;;;;;;;;;;;16.90;99.90;;;;;;4919712;29;20388;-74
2021/07/18 03:49:35;;;;;;;;;;;16.90;99.90;;;;;;4918568;29;19926;-74
2021/07/18 03:52:07;;;;;;;;;;;16.90;99.90;;;;;;4918578;29;19970;-74
2021/07/18 03:54:34;;;;;;;;;;;16.90;99.90;;;;;;4903028;29;20337;-74
2021/07/18 03:57:05;;;;;;;;;;;16.90;99.90;;;;;;4919660;29;19982;-74
2021/07/18 03:59:32;;;;;;;;;;;16.90;99.90;;;;;;4902798;29;20025;-74
2021/07/18 04:01:59;;;;;;;;;;;16.80;99.90;;;;;;4918210;29;19970;-74
2021/07/18 04:04:33;;;;;;;;;;;16.80;99.90;;;;;;4903204;29;20021;-74
2021/07/18 04:07:01;;;;;;;;;;;16.80;99.90;;;;;;4918528;29;19974;-74
2021/07/18 04:09:28;;;;;;;;;;;16.80;99.90;;;;;;4918452;29;19994;-74
2021/07/18 04:11:54;;;;;;;;;;;16.80;99.90;;;;;;4902453;29;20475;-74
2021/07/18 04:14:26;;;;;;;;;;;16.70;99.90;;;;;;4903115;29;20033;-74
2021/07/18 04:16:58;;;;;;;;;;;16.70;99.90;;;;;;4918203;29;20369;-74
2021/07/18 04:19:24;;;;;;;;;;;16.70;99.90;;;;;;4918324;29;19969;-74
2021/07/18 04:21:56;;;;;;;;;;;16.70;99.90;;;;;;4918749;29;20029;-74
2021/07/18 04:24:23;;;;;;;;;;;16.70;99.90;;;;;;4902531;29;19934;-74
2021/07/18 04:26:55;;;;;;;;;;;16.60;99.90;;;;;;4903125;29;20026;-74
2021/07/18 04:29:22;;;;;;;;;;;16.60;99.90;;;;;;4902254;29;19926;-74
2021/07/18 04:31:53;;;;;;;;;;;16.60;99.90;;;;;;4917803;29;19986;-74
2021/07/18 04:34:25;;;;;;;;;;;16.60;99.90;;;;;;4902855;29;19954;-74
2021/07/18 04:36:51;;;;;;;;;;;16.50;99.90;;;;;;4935068;29;19966;-74
2021/07/18 04:39:18;;;;;;;;;;;16.50;99.90;;;;;;4917802;29;19950;-74
2021/07/18 04:41:50;;;;;;;;;;;16.50;99.90;;;;;;4917959;29;19958;-74
2021/07/18 04:44:17;;;;;;;;;;;16.50;99.90;;;;;;4902077;29;20033;-74
2021/07/18 04:46:43;;;;;;;;;;;16.50;99.90;;;;;;4902194;29;20025;-74
2021/07/18 04:49:15;;;;;;;;;;;16.50;99.90;;;;;;4917886;29;20013;-74
2021/07/18 04:51:42;;;;;;;;;;;16.50;99.90;;;;;;4934566;29;20398;-74
2021/07/18 04:54:13;;;;;;;;;;;16.50;99.90;;;;;;4917589;29;19962;-74
2021/07/18 04:56:40;;;;;;;;;;;16.60;99.90;;;;;;4917607;29;19966;-74
2021/07/18 04:59:12;;;;;;;;;;;16.50;99.90;;;;;;4902765;29;20029;-74
2021/07/18 05:01:43;;;;;;;;;;;16.50;99.90;;;;;;4902343;29;20365;-74
2021/07/18 05:04:10;;;;;;;;;;;16.50;99.90;;;;;;4901899;29;20025;-74
2021/07/18 05:06:42;;;;;;;;;;;16.60;99.90;;;;;;4918429;29;19977;-73
2021/07/18 05:09:08;;;;;;;;;;;16.50;99.90;;;;;;4917648;29;20071;-73
2021/07/18 05:11:40;;;;;;;;;;;16.60;99.90;;;;;;4902247;29;20401;-74
2021/07/18 05:14:12;;;;;;;;;;;16.50;99.90;;;;;;4918440;29;20465;-73
2021/07/18 05:16:38;;;;;;;;;;;16.50;99.90;;;;;;4918483;29;19977;-73
2021/07/18 05:19:05;;;;;;;;;;;16.50;99.90;;;;;;4919223;29;20397;-73
2021/07/18 05:21:32;;;;;;;;;;;16.50;99.90;;;;;;4935615;29;20354;-74
2021/07/18 05:24:04;;;;;;;;;;;16.50;99.90;;;;;;4919431;29;19962;-74
2021/07/18 05:26:35;;;;;;;;;;;16.60;99.90;;;;;;4903327;29;19931;-73
2021/07/18 05:29:07;;;;;;;;;;;16.60;99.90;;;;;;4918672;29;19937;-74
2021/07/18 05:31:34;;;;;;;;;;;16.60;99.90;;;;;;4917655;29;19982;-75
2021/07/18 05:34:05;;;;;;;;;;;16.60;99.90;;;;;;4916966;29;20372;-73
2021/07/18 05:36:32;;;;;;;;;;;16.70;99.90;;;;;;4920246;29;19983;-74
2021/07/18 05:38:58;;;;;;;;;;;16.70;99.90;;;;;;4912818;29;19973;-74
2021/07/18 05:41:31;;;;;;;;;;;16.80;99.90;;;;;;4896605;29;19958;-74
2021/07/18 05:43:57;;;;;;;;;;;16.80;99.90;;;;;;4913856;29;19937;-73
2021/07/18 05:46:29;;;;;;;;;;;16.90;99.90;;;;;;4914683;29;20029;-74
2021/07/18 05:48:56;;;;;;;;;;;16.90;99.90;;;;;;4931332;29;20350;-73
2021/07/18 05:51:27;;;;;;;;;;;16.90;99.90;;;;;;4917358;29;20460;-73
2021/07/18 05:53:59;;;;;;;;;;;17.00;99.90;;;;;;4921331;29;19931;-73
2021/07/18 05:56:31;;;;;;;;;;;17.10;99.90;;;;;;4921262;29;19962;-74
2021/07/18 05:59:03;;;;;;;;;;;17.10;99.90;;;;;;4921418;29;19933;-74
2021/07/18 06:01:29;;;;;;;;;;;17.10;99.90;;;;;;4919922;29;19994;-73
2021/07/18 06:04:01;;;;;;;;;;;17.10;99.90;;;;;;4920263;29;20027;-74
2021/07/18 06:06:33;;;;;;;;;;;17.10;99.90;;;;;;4921218;29;20026;-74
2021/07/18 06:08:59;;;;;;;;;;;17.10;99.90;;;;;;4920251;29;20012;-73
2021/07/18 06:11:31;;;;;;;;;;;17.10;99.90;;;;;;4919896;29;20029;-73
2021/07/18 06:13:59;;;;;;;;;;;17.10;99.90;;;;;;4920327;29;19930;-73
2021/07/18 06:16:25;;;;;;;;;;;17.10;99.90;;;;;;4904297;29;20309;-74
2021/07/18 06:18:52;;;;;;;;;;;17.10;99.90;;;;;;4919657;29;20021;-73
2021/07/18 06:21:19;;;;;;;;;;;17.10;99.90;;;;;;4919301;29;20386;-73
2021/07/18 06:23:45;;;;;;;;;;;17.20;99.90;;;;;;4919821;29;20021;-73
2021/07/18 06:26:17;;;;;;;;;;;17.20;99.90;;;;;;4914662;29;20017;-74
2021/07/18 06:28:44;;;;;;;;;;;17.30;99.90;;;;;;4919368;29;20029;-73
2021/07/18 06:31:11;;;;;;;;;;;17.50;99.90;;;;;;4936600;29;20006;-74
2021/07/18 06:33:38;;;;;;;;;;;17.50;99.90;;;;;;4903591;29;20017;-74
2021/07/18 06:36:05;;;;;;;;;;;17.60;99.90;;;;;;4917846;29;19957;-74
2021/07/18 06:38:35;;;;;;;;;;;17.70;99.90;;;;;;4918545;29;19933;-73
2021/07/18 06:41:02;;;;;;;;;;;17.80;99.90;;;;;;4918838;29;19969;-72
2021/07/18 06:43:36;;;;;;;;;;;18.00;99.90;;;;;;4919099;29;19926;-74
2021/07/18 06:46:03;;;;;;;;;;;18.00;99.90;;;;;;4919011;29;20025;-74
2021/07/18 06:48:32;;;;;;;;;;;18.10;99.90;;;;;;4918197;29;21269;-73
2021/07/18 06:51:04;;;;;;;;;;;18.20;99.90;;;;;;4915684;29;20108;-74
2021/07/18 06:53:32;;;;;;;;;;;18.20;99.90;;;;;;4902295;29;20278;-74
2021/07/18 06:55:59;;;;;;;;;;;18.30;99.90;;;;;;4917950;29;19954;-73
2021/07/18 06:58:25;;;;;;;;;;;18.40;99.90;;;;;;4901816;29;19927;-74
2021/07/18 07:00:57;;;;;;;;;;;18.30;99.90;;;;;;4916740;29;20017;-74
2021/07/18 07:03:24;;;;;;;;;;;18.20;99.90;;;;;;4916089;29;20433;-74
2021/07/18 07:05:50;;;;;;;;;;;18.20;99.90;;;;;;4917409;29;20446;-74
2021/07/18 07:08:22;;;;;;;;;;;18.30;99.90;;;;;;4917303;29;19970;-74
2021/07/18 07:10:49;;;;;;;;;;;18.30;99.90;;;;;;4917247;29;19927;-74
2021/07/18 07:13:20;;;;;;;;;;;18.40;99.90;;;;;;4917167;29;20037;-74
2021/07/18 07:15:52;;;;;;;;;;;18.50;99.90;;;;;;4917044;29;20022;-74
2021/07/18 07:18:19;;;;;;;;;;;18.60;99.90;;;;;;4916291;29;19974;-73
2021/07/18 07:20:45;;;;;;;;;;;18.60;99.90;;;;;;4934685;29;19962;-74
2021/07/18 07:23:17;;;;;;;;;;;18.70;99.90;;;;;;4933886;29;20361;-74
2021/07/18 07:25:49;;;;;;;;;;;18.80;99.90;;;;;;4919227;29;19927;-73
2021/07/18 07:28:21;;;;;;;;;;;19.00;99.90;;;;;;4917598;29;20452;-73
2021/07/18 07:30:48;;;;;;;;;;;18.90;99.90;;;;;;4900208;29;19990;-74
2021/07/18 07:33:15;;;;;;;;;;;19.10;99.90;;;;;;4917108;29;19926;-73
2021/07/18 07:35:42;;;;;;;;;;;19.20;99.90;;;;;;4918054;29;19977;-73
2021/07/18 07:38:13;;;;;;;;;;;19.30;99.90;;;;;;4918830;29;19948;-73
2021/07/18 07:40:45;;;;;;;;;;;19.40;99.90;;;;;;4902878;29;19930;-73
2021/07/18 07:43:17;;;;;;;;;;;19.50;99.90;;;;;;4917419;29;20633;-73
2021/07/18 07:45:49;;;;;;;;;;;19.40;99.90;;;;;;4934855;29;19977;-74
2021/07/18 07:48:16;;;;;;;;;;;19.30;99.90;;;;;;4902156;29;19976;-73
2021/07/18 07:50:48;;;;;;;;;;;19.30;99.90;;;;;;4902711;29;20485;-73
2021/07/18 07:53:15;;;;;;;;;;;19.20;99.90;;;;;;4917360;29;19966;-73
2021/07/18 07:55:46;;;;;;;;;;;19.30;99.90;;;;;;4917586;29;20041;-73
2021/07/18 07:58:13;;;;;;;;;;;19.30;99.90;;;;;;4917772;29;20025;-73
2021/07/18 08:00:40;;;;;;;;;;;19.30;99.90;;;;;;4934697;29;19958;-73
2021/07/18 08:03:07;;;;;;;;;;;19.40;99.90;;;;;;4917776;29;19961;-73
2021/07/18 08:05:38;;;;;;;;;;;19.40;99.90;;;;;;4934807;29;19969;-74
2021/07/18 08:08:05;;;;;;;;;;;19.40;99.90;;;;;;4917616;29;19966;-73
2021/07/18 08:10:38;;;;;;;;;;;19.30;99.90;;;;;;4918283;29;19969;-73
2021/07/18 08:13:05;;;;;;;;;;;19.30;99.90;;;;;;4932965;29;19933;-73
2021/07/18 08:15:36;;;;;;;;;;;19.30;99.90;;;;;;4920801;29;19927;-73
2021/07/18 08:18:08;;;;;;;;;;;19.40;99.90;;;;;;4917445;29;20013;-73
2021/07/18 08:20:40;;;;;;;;;;;19.40;99.90;;;;;;4904782;29;19926;-73
2021/07/18 08:23:11;;;;;;;;;;;19.60;99.90;;;;;;4930282;29;20029;-74
2021/07/18 08:25:38;;;;;;;;;;;19.70;99.90;;;;;;4917352;29;20398;-73
2021/07/18 08:28:10;;;;;;;;;;;19.70;99.90;;;;;;4918246;29;20393;-73
2021/07/18 08:30:37;;;;;;;;;;;19.60;99.90;;;;;;4917822;29;19934;-73
2021/07/18 08:33:04;;;;;;;;;;;19.60;99.90;;;;;;4917788;29;20017;-73
2021/07/18 08:35:35;;;;;;;;;;;19.60;99.90;;;;;;4933670;29;20045;-74
2021/07/18 08:38:07;;;;;;;;;;;19.60;99.90;;;;;;4916914;29;20542;-73
2021/07/18 08:40:40;;;;;;;;;;;19.60;99.90;;;;;;4901520;29;20026;-73
2021/07/18 08:43:13;;;;;;;;;;;19.60;99.90;;;;;;4916838;29;20549;-73
2021/07/18 08:45:45;;;;;;;;;;;19.60;99.90;;;;;;4916421;29;20831;-73
2021/07/18 08:48:17;;;;;;;;;;;19.70;99.90;;;;;;4901574;29;19966;-73
2021/07/18 08:50:50;;;;;;;;;;;19.70;99.90;;;;;;4916487;29;19939;-76
2021/07/18 08:53:16;;;;;;;;;;;19.70;99.90;;;;;;4932760;29;20419;-73
2021/07/18 08:55:43;;;;;;;;;;;19.70;99.90;;;;;;4900776;29;20026;-74
2021/07/18 08:58:15;;;;;;;;;;;19.80;99.90;;;;;;4931124;29;20441;-74
2021/07/18 09:00:48;;;;;;;;;;;19.90;99.90;;;;;;4916330;29;20397;-73
2021/07/18 09:03:15;;;;;;;;;;;20.00;99.90;;;;;;4915794;29;19930;-74
2021/07/18 09:05:43;;;;;;;;;;;20.00;99.90;;;;;;4900412;29;19931;-74
2021/07/18 09:08:19;;;;;;;;;;;20.10;99.90;;;;;;4933667;29;20094;-74
2021/07/18 09:10:51;;;;;;;;;;;20.10;99.90;;;;;;4916506;29;19958;-74
2021/07/18 09:13:18;;;;;;;;;;;20.20;99.90;;;;;;4916100;29;20059;-74
2021/07/18 09:15:45;;;;;;;;;;;20.40;99.90;;;;;;4900752;29;19962;-74
2021/07/18 09:18:18;;;;;;;;;;;20.50;99.90;;;;;;4917665;29;20018;-74
2021/07/18 09:20:55;;;;;;;;;;;20.70;99.90;;;;;;4918200;29;19950;-74
2021/07/18 09:23:25;;;;;;;;;;;20.80;99.90;;;;;;4916761;29;19934;-74
2021/07/18 09:26:12;;;;;;;;;;;20.80;99.90;;;;;;4917159;29;19934;-74
2021/07/18 09:28:38;;;;;;;;;;;20.90;99.90;;;;;;4920451;29;19978;-74
2021/07/18 09:31:26;;;;;;;;;;;20.90;99.90;;;;;;4920575;29;19927;-74
2021/07/18 09:34:21;;;;;;;;;;;20.90;99.90;;;;;;4906196;29;20465;-74
2021/07/18 09:36:48;;;;;;;;;;;20.90;99.90;;;;;;4905584;29;20025;-74
2021/07/18 09:39:20;;;;;;;;;;;20.90;99.90;;;;;;4921029;29;20357;-74
2021/07/18 09:41:46;;;;;;;;;;;20.90;99.90;;;;;;4905125;29;20354;-75
2021/07/18 09:44:18;;;;;;;;;;;20.90;99.90;;;;;;4905966;29;19933;-74
2021/07/18 09:46:45;;;;;;;;;;;21.00;99.90;;;;;;4921221;29;19927;-74
2021/07/18 09:49:30;;;;;;;;;;;21.00;99.90;;;;;;4906186;29;19973;-74
2021/07/18 09:52:11;;;;;;;;;;;21.10;99.90;;;;;;4905709;29;20234;-74
2021/07/18 09:54:38;;;;;;;;;;;21.10;99.90;;;;;;4920744;29;19973;-74
2021/07/18 09:57:07;;;;;;;;;;;21.20;99.90;;;;;;4921177;29;19933;-74
2021/07/18 09:59:34;;;;;;;;;;;21.30;99.90;;;;;;4920906;29;19959;-74
2021/07/18 10:02:08;;;;;;;;;;;21.30;99.90;;;;;;4921225;29;19954;-74
2021/07/18 10:04:39;;;;;;;;;;;21.40;99.90;;;;;;4905582;29;20393;-74
2021/07/18 10:07:07;;;;;;;;;;;21.60;99.90;;;;;;4905010;29;20022;-75
2021/07/18 10:09:39;;;;;;;;;;;21.70;99.90;;;;;;4938172;29;20013;-74
2021/07/18 10:12:11;;;;;;;;;;;21.90;99.90;;;;;;4920544;29;20289;-74
2021/07/18 10:14:42;;;;;;;;;;;22.10;99.90;;;;;;4905367;29;20017;-74
2021/07/18 10:17:14;;;;;;;;;;;22.40;99.90;;;;;;4920424;29;19933;-74
2021/07/18 10:19:41;;;;;;;;;;;22.50;99.90;;;;;;4920571;29;19927;-74
2021/07/18 10:22:13;;;;;;;;;;;22.50;99.90;;;;;;4921027;29;19965;-74
2021/07/18 10:24:40;;;;;;;;;;;22.40;99.90;;;;;;4920433;29;19958;-74
2021/07/18 10:27:12;;;;;;;;;;;22.40;99.90;;;;;;4920840;29;19931;-73
2021/07/18 10:29:40;;;;;;;;;;;22.30;99.90;;;;;;4920255;29;20368;-74
2021/07/18 10:32:13;;;;;;;;;;;22.20;99.90;;;;;;4919868;29;20039;-74
2021/07/18 10:34:40;;;;;;;;;;;22.10;99.90;;;;;;4920074;29;20018;-74
2021/07/18 10:37:12;;;;;;;;;;;22.00;99.90;;;;;;4904935;29;20402;-74
2021/07/18 10:39:43;;;;;;;;;;;22.10;99.90;;;;;;4919922;29;19962;-73
2021/07/18 10:42:39;;;;;;;;;;;22.10;99.90;;;;;;4919678;29;20493;-74
2021/07/18 10:45:15;;;;;;;;;;;22.20;99.90;;;;;;4891659;29;20013;-75
2021/07/18 10:48:02;;;;;;;;;;;22.20;99.90;;;;;;4919926;29;20041;-74
2021/07/18 10:50:41;;;;;;;;;;;22.30;99.90;;;;;;4904003;29;19981;-74
2021/07/18 10:53:19;;;;;;;;;;;22.30;99.90;;;;;;4904331;29;20025;-74
2021/07/18 10:55:46;;;;;;;;;;;22.50;99.90;;;;;;4919717;29;19926;-74
2021/07/18 10:58:32;;;;;;;;;;;22.60;99.90;;;;;;4904032;29;19934;-74
2021/07/18 11:01:10;;;;;;;;;;;22.70;99.90;;;;;;4919330;29;20025;-74
2021/07/18 11:03:43;;;;;;;;;;;22.80;99.90;;;;;;4904669;29;20369;-74
2021/07/18 11:06:39;;;;;;;;;;;22.70;99.90;;;;;;4903945;29;20005;-74
2021/07/18 11:09:18;;;;;;;;;;;22.80;99.90;;;;;;4936699;29;20296;-74
2021/07/18 11:11:49;;;;;;;;;;;23.00;99.90;;;;;;4919120;29;19958;-74
2021/07/18 11:14:35;;;;;;;;;;;22.90;99.90;;;;;;4920394;29;19958;-74
2021/07/18 11:17:08;;;;;;;;;;;22.80;99.90;;;;;;4904228;29;19930;-75
2021/07/18 11:20:00;;;;;;;;;;;22.80;99.90;;;;;;4919580;29;20013;-74
2021/07/18 11:22:45;;;;;;;;;;;22.80;99.90;;;;;;4918926;29;19970;-74
2021/07/18 11:25:37;;;;;;;;;;;22.90;99.90;;;;;;4919046;29;20358;-74
2021/07/18 11:28:27;;;;;;;;;;;22.90;99.90;;;;;;4919266;29;19926;-74
2021/07/18 11:31:11;;;;;;;;;;;23.00;99.90;;;;;;4904145;29;19937;-73
2021/07/18 11:34:01;;;;;;;;;;;23.20;99.90;;;;;;4935789;29;20029;-74
2021/07/18 11:36:31;;;;;;;;;;;23.20;99.90;;;;;;4903283;29;20026;-74
2021/07/18 11:39:10;;;;;;;;;;;23.30;99.90;;;;;;4903930;29;19966;-74
2021/07/18 11:41:42;;;;;;;;;;;23.20;99.90;;;;;;4919699;29;19949;-74
2021/07/18 11:44:11;;;;;;;;;;;23.20;99.90;;;;;;4918291;29;19962;-73
2021/07/18 11:46:44;;;;;;;;;;;23.20;99.90;;;;;;4903887;29;19937;-74
2021/07/18 11:49:15;;;;;;;;;;;23.20;99.90;;;;;;4903158;29;19927;-74
2021/07/18 11:51:47;;;;;;;;;;;23.30;99.90;;;;;;4918329;29;20026;-74
2021/07/18 11:54:15;;;;;;;;;;;23.30;99.90;;;;;;4918710;29;19970;-74
2021/07/18 11:56:42;;;;;;;;;;;23.30;99.90;;;;;;4918753;29;19974;-74
2021/07/18 11:59:15;;;;;;;;;;;23.30;99.90;;;;;;4918510;29;20354;-74
2021/07/18 12:01:43;;;;;;;;;;;23.20;99.90;;;;;;4918278;29;19926;-74
2021/07/18 12:04:15;;;;;;;;;;;23.30;99.90;;;;;;4916905;29;19970;-74
2021/07/18 12:06:42;;;;;;;;;;;23.30;99.90;;;;;;4918467;29;20156;-74
2021/07/18 12:09:15;;;;;;;;;;;23.40;99.90;;;;;;4918431;29;19926;-74
2021/07/18 12:11:53;;;;;;;;;;;23.60;99.90;;;;;;4918103;29;19962;-74
2021/07/18 12:14:20;;;;;;;;;;;23.90;99.90;;;;;;4935391;29;20381;-74
2021/07/18 12:16:51;;;;;;;;;;;24.10;99.90;;;;;;4918062;29;19977;-74
2021/07/18 12:19:24;;;;;;;;;;;24.20;99.90;;;;;;4919079;29;19937;-74
2021/07/18 12:21:58;;;;;;;;;;;24.40;99.90;;;;;;4917958;29;19933;-74
2021/07/18 12:24:32;;;;;;;;;;;24.60;99.90;;;;;;4917805;29;20297;-74
2021/07/18 12:27:08;;;;;;;;;;;24.80;99.90;;;;;;4918959;29;20033;-74
2021/07/18 12:29:55;;;;;;;;;;;25.20;99.90;;;;;;4918053;29;19969;-74
2021/07/18 12:32:26;;;;;;;;;;;25.20;99.90;;;;;;4901946;29;20026;-74
2021/07/18 12:34:54;;;;;;;;;;;24.90;99.90;;;;;;4917739;29;19970;-74
2021/07/18 12:37:22;;;;;;;;;;;24.80;99.90;;;;;;4917928;29;19931;-74
2021/07/18 12:39:49;;;;;;;;;;;24.90;99.90;;;;;;4917942;29;19973;-74
2021/07/18 12:42:45;;;;;;;;;;;24.90;99.90;;;;;;4917547;29;19927;-74
2021/07/18 12:45:20;;;;;;;;;;;25.20;99.90;;;;;;4935277;29;19927;-74
2021/07/18 12:48:03;;;;;;;;;;;25.50;99.90;;;;;;4917980;29;19927;-74
2021/07/18 12:50:30;;;;;;;;;;;25.50;99.90;;;;;;4917875;29;20021;-74
2021/07/18 12:53:10;;;;;;;;;;;25.40;99.90;;;;;;4917674;29;20003;-74
2021/07/18 12:55:42;;;;;;;;;;;25.20;99.90;;;;;;4917622;29;20029;-73
2021/07/18 12:58:17;;;;;;;;;;;25.40;99.90;;;;;;4918659;29;20286;-74
2021/07/18 13:01:00;;;;;;;;;;;25.50;99.90;;;;;;4916977;29;19982;-73
2021/07/18 13:03:38;;;;;;;;;;;25.60;99.90;;;;;;4917703;29;19954;-74
2021/07/18 13:06:09;;;;;;;;;;;25.90;99.90;;;;;;4917748;29;19970;-74
2021/07/18 13:08:41;;;;;;;;;;;25.70;99.90;;;;;;4917662;29;19969;-74
2021/07/18 13:11:26;;;;;;;;;;;25.60;99.90;;;;;;4917740;29;19978;-75
2021/07/18 13:13:53;;;;;;;;;;;25.40;99.90;;;;;;4917715;29;19926;-74
2021/07/18 13:16:29;;;;;;;;;;;25.60;99.90;;;;;;4917797;29;20370;-74
2021/07/18 13:19:26;;;;;;;;;;;25.80;99.90;;;;;;4917626;29;19931;-74
2021/07/18 13:22:00;;;;;;;;;;;26.10;99.90;;;;;;4905697;29;19950;-74
2021/07/18 13:24:34;;;;;;;;;;;26.40;99.90;;;;;;4917716;29;19965;-74
2021/07/18 13:27:08;;;;;;;;;;;26.60;99.90;;;;;;4917084;29;19958;-74
2021/07/18 13:29:41;;;;;;;;;;;26.60;99.90;;;;;;4917665;29;20038;-74
2021/07/18 13:32:09;;;;;;;;;;;26.70;99.90;;;;;;4917517;29;19927;-74
2021/07/18 13:34:51;;;;;;;;;;;26.90;99.90;;;;;;4918338;29;20014;-74
2021/07/18 13:37:26;;;;;;;;;;;27.10;99.90;;;;;;4917528;29;19926;-75
2021/07/18 13:39:53;;;;;;;;;;;27.30;99.90;;;;;;4917683;29;19959;-75
2021/07/18 13:42:29;;;;;;;;;;;27.00;99.90;;;;;;4934584;29;20013;-75
2021/07/18 13:44:57;;;;;;;;;;;26.80;99.90;;;;;;4918005;29;19954;-74
2021/07/18 13:47:29;;;;;;;;;;;26.70;99.90;;;;;;4917581;29;20034;-75
2021/07/18 13:49:55;;;;;;;;;;;26.60;99.90;;;;;;4934545;29;20025;-74
2021/07/18 13:52:22;;;;;;;;;;;26.80;99.90;;;;;;4917094;29;19981;-74
2021/07/18 13:54:49;;;;;;;;;;;26.80;99.90;;;;;;4917265;29;19958;-74
2021/07/18 13:57:15;;;;;;;;;;;26.90;99.90;;;;;;4916928;29;19981;-74
2021/07/18 13:59:47;;;;;;;;;;;26.90;99.90;;;;;;4918190;29;20412;-74
2021/07/18 14:02:19;;;;;;;;;;;26.80;99.90;;;;;;4916863;29;19927;-74
2021/07/18 14:04:45;;;;;;;;;;;26.50;99.90;;;;;;4913228;29;20519;-74
2021/07/18 14:07:12;;;;;;;;;;;26.30;99.90;;;;;;4933692;29;19927;-74
2021/07/18 14:09:44;;;;;;;;;;;26.30;99.90;;;;;;4916470;29;19970;-74
2021/07/18 14:12:15;;;;;;;;;;;26.60;99.90;;;;;;4939479;28;20030;-74
2021/07/18 14:14:46;;;;;;;;;;;27.00;99.90;;;;;;4904019;29;19958;-74
2021/07/18 14:17:13;;;;;;;;;;;27.20;99.90;;;;;;4903904;29;19927;-74
2021/07/18 14:19:40;;;;;;;;;;;27.50;99.90;;;;;;4904073;29;19951;-75
2021/07/18 14:22:07;;;;;;;;;;;27.70;99.90;;;;;;4918782;29;20021;-74
2021/07/18 14:24:36;;;;;;;;;;;27.90;99.90;;;;;;4903998;29;20366;-74
2021/07/18 14:27:04;;;;;;;;;;;27.80;99.90;;;;;;4920146;29;20413;-74
2021/07/18 14:29:35;;;;;;;;;;;27.70;99.90;;;;;;4904253;29;19927;-74
2021/07/18 14:32:07;;;;;;;;;;;27.90;99.90;;;;;;4902777;29;19931;-75
2021/07/18 14:34:34;;;;;;;;;;;28.30;99.90;;;;;;4918436;29;20074;-74
2021/07/18 14:37:05;;;;;;;;;;;28.40;99.90;;;;;;4919808;29;19962;-74